Time;durP1;ratioP1;P1;durP2;ratioP2;P2;SDS_P1;SDS_P2;PMS_P1;PMS_P2;Temp;Humidity;BMP_temperature;BMP_pressure;BME280_temperature;BME280_humidity;BME280_pressure;Samples;Min_cycle;Max_cycle;Signal;HPM_P1;HPM_P2
2022/01/21 00:00:57;;;;;;;20.17;2.90;;;;;;;;;;5143562;27;20060;-58
2022/01/21 00:03:23;;;;;;;23.95;3.45;;;;;;;;;;5145789;27;20035;-58
2022/01/21 00:05:49;;;;;;;17.15;4.00;;;;;;;;;;5154681;27;20058;-58
2022/01/21 00:08:16;;;;;;;18.52;2.75;;;;;;;;;;5137062;27;20383;-59
2022/01/21 00:10:42;;;;;;;16.95;3.38;;;;;;;;;;5143110;27;20115;-58
2022/01/21 00:13:18;;;;;;;12.00;2.28;;;;;;;;;;5151613;27;20047;-59
2022/01/21 00:15:44;;;;;;;7.40;1.55;;;;;;;;;;5144695;27;20048;-59
2022/01/21 00:18:11;;;;;;;9.38;2.13;;;;;;;;;;5135931;27;20090;-58
2022/01/21 00:31:37;;;;;;;6.47;1.38;;;;;;;;;;5141145;27;20067;-58
2022/01/21 00:34:03;;;;;;;13.23;1.60;;;;;;;;;;5143145;27;20043;-58
2022/01/21 00:36:30;;;;;;;10.73;1.45;;;;;;;;;;5145349;27;20054;-58
2022/01/21 00:38:57;;;;;;;17.63;2.92;;;;;;;;;;5140959;27;20044;-59
2022/01/21 00:41:27;;;;;;;18.00;2.95;;;;;;;;;;5149566;27;20051;-58
2022/01/21 00:43:53;;;;;;;10.93;2.28;;;;;;;;;;5140187;27;20131;-58
2022/01/21 00:46:19;;;;;;;14.27;1.55;;;;;;;;;;5143210;27;20078;-58
2022/01/21 00:48:46;;;;;;;8.73;1.90;;;;;;;;;;5145093;28;20051;-59
2022/01/21 00:51:12;;;;;;;12.65;2.03;;;;;;;;;;5143902;28;20491;-58
2022/01/21 00:53:39;;;;;;;8.60;2.17;;;;;;;;;;5135943;28;20043;-60
2022/01/21 00:56:05;;;;;;;12.15;2.17;;;;;;;;;;5145649;27;20254;-58
2022/01/21 00:58:31;;;;;;;10.02;1.55;;;;;;;;;;5144957;28;20057;-58
2022/01/21 01:00:57;;;;;;;13.13;2.45;;;;;;;;;;5145185;28;20041;-58
2022/01/21 01:03:23;;;;;;;10.68;1.77;;;;;;;;;;5145224;28;20122;-58
2022/01/21 01:05:51;;;;;;;11.77;2.25;;;;;;;;;;5144436;28;20068;-58
2022/01/21 01:08:18;;;;;;;11.98;2.40;;;;;;;;;;5160153;27;20532;-59
2022/01/21 01:21:25;;;;;;;16.40;2.30;;;;;;;;;;5145088;27;20053;-58
2022/01/21 01:29:21;;;;;;;26.88;3.85;;;;;;;;;;5166008;27;20574;-59
2022/01/21 01:31:48;;;;;;;15.00;2.70;;;;;;;;;;5161640;27;20068;-60
2022/01/21 01:34:14;;;;;;;22.13;3.03;;;;;;;;;;5145117;27;20098;-58
2022/01/21 01:36:43;;;;;;;23.20;3.40;;;;;;;;;;5149751;27;20039;-58
2022/01/21 01:39:32;;;;;;;17.08;3.60;;;;;;;;;;5169857;27;20050;-58
2022/01/21 01:42:26;;;;;;;23.45;4.07;;;;;;;;;;5164437;27;20503;-58
2022/01/21 01:50:36;;;;;;;25.23;3.20;;;;;;;;;;5150980;27;20059;-58
2022/01/21 01:53:02;;;;;;;27.65;2.72;;;;;;;;;;5161141;27;20050;-58
2022/01/21 01:55:28;;;;;;;20.70;3.03;;;;;;;;;;5160302;27;20118;-58
2022/01/21 01:57:55;;;;;;;11.63;2.58;;;;;;;;;;5159234;27;20138;-58
2022/01/21 02:00:21;;;;;;;8.63;1.25;;;;;;;;;;5167941;27;20043;-58
2022/01/21 02:02:47;;;;;;;13.25;1.65;;;;;;;;;;5159980;27;20485;-60
2022/01/21 02:05:13;;;;;;;16.77;2.15;;;;;;;;;;5147886;27;20130;-59
2022/01/21 02:07:39;;;;;;;18.45;2.20;;;;;;;;;;5161275;27;20086;-59
2022/01/21 02:10:06;;;;;;;7.40;1.42;;;;;;;;;;5169084;27;20047;-59
2022/01/21 02:12:32;;;;;;;8.15;1.42;;;;;;;;;;5156754;27;20118;-59
2022/01/21 02:15:00;;;;;;;15.23;1.90;;;;;;;;;;5148183;27;20070;-60
2022/01/21 02:22:48;;;;;;;9.90;1.77;;;;;;;;;;5151655;27;20417;-60
2022/01/21 02:25:16;;;;;;;14.00;2.05;;;;;;;;;;5168666;27;20061;-59
2022/01/21 02:27:42;;;;;;;;;;;;;;;;;;5154601;27;20069;-59
2022/01/21 02:30:09;;;;;;;14.80;1.65;;;;;;;;;;5146640;27;20286;-60
2022/01/21 02:32:35;;;;;;;19.90;2.05;;;;;;;;;;5158766;27;20625;-60
2022/01/21 02:35:01;;;;;;;13.13;2.00;;;;;;;;;;5158041;27;20046;-59
2022/01/21 02:37:27;;;;;;;8.55;2.03;;;;;;;;;;5148606;27;20039;-60
2022/01/21 02:39:53;;;;;;;13.43;1.92;;;;;;;;;;5146702;27;20039;-59
2022/01/21 02:42:19;;;;;;;10.23;2.13;;;;;;;;;;5149045;27;20092;-59
2022/01/21 02:44:45;;;;;;;18.77;2.50;;;;;;;;;;5147794;27;20304;-59
2022/01/21 02:47:12;;;;;;;15.00;1.80;;;;;;;;;;5146673;27;20047;-59
2022/01/21 02:49:38;;;;;;;7.57;1.50;;;;;;;;;;5148114;27;20497;-60
2022/01/21 02:52:07;;;;;;;16.60;1.98;;;;;;;;;;5161889;27;20086;-59
2022/01/21 02:54:35;;;;;;;;;;;;;;;;;;5148762;27;20055;-60
2022/01/21 02:57:06;;;;;;;10.63;1.88;;;;;;;;;;5161348;27;19919;-59
2022/01/21 02:59:33;;;;;;;16.95;2.00;;;;;;;;;;5154530;27;20042;-59
2022/01/21 03:01:59;;;;;;;7.10;1.88;;;;;;;;;;5148086;27;20095;-59
2022/01/21 03:04:37;;;;;;;9.05;1.20;;;;;;;;;;5147810;27;20051;-60
2022/01/21 03:07:04;;;;;;;;;;;;;;;;;;5167166;27;20034;-59
2022/01/21 03:09:30;;;;;;;4.65;0.98;;;;;;;;;;5157618;27;20302;-59
2022/01/21 03:11:56;;;;;;;3.38;1.45;;;;;;;;;;5165157;27;20052;-59
2022/01/21 03:14:22;;;;;;;6.63;1.13;;;;;;;;;;5168259;27;20072;-59
2022/01/21 03:16:48;;;;;;;5.22;1.20;;;;;;;;;;5149899;27;20123;-59
2022/01/21 03:19:15;;;;;;;3.72;1.05;;;;;;;;;;5146828;27;20039;-59
2022/01/21 03:21:41;;;;;;;6.82;1.02;;;;;;;;;;5162271;27;20050;-59
2022/01/21 03:24:07;;;;;;;5.35;1.30;;;;;;;;;;5159389;27;20071;-59
2022/01/21 03:26:33;;;;;;;6.15;1.25;;;;;;;;;;5160911;27;20043;-59
2022/01/21 03:29:00;;;;;;;10.25;1.48;;;;;;;;;;5145645;27;20050;-59
2022/01/21 03:31:27;;;;;;;11.63;1.83;;;;;;;;;;5159496;27;20038;-59
2022/01/21 03:33:53;;;;;;;7.40;1.52;;;;;;;;;;5167569;27;20043;-59
2022/01/21 03:36:20;;;;;;;14.00;1.50;;;;;;;;;;5165583;27;20501;-59
2022/01/21 03:38:46;;;;;;;6.97;2.05;;;;;;;;;;5165740;27;20043;-59
2022/01/21 03:41:12;;;;;;;8.80;1.85;;;;;;;;;;5167185;27;20111;-59
2022/01/21 03:43:39;;;;;;;13.25;2.20;;;;;;;;;;5147906;27;20107;-59
2022/01/21 03:46:05;;;;;;;21.80;2.05;;;;;;;;;;5145998;27;20498;-59
2022/01/21 03:48:33;;;;;;;17.70;2.88;;;;;;;;;;5125947;28;20048;-59
2022/01/21 03:50:59;;;;;;;6.57;1.38;;;;;;;;;;5125323;28;20097;-60
2022/01/21 03:53:25;;;;;;;18.63;2.78;;;;;;;;;;5163161;27;20052;-59
2022/01/21 03:55:52;;;;;;;18.83;2.00;;;;;;;;;;5166780;27;20271;-59
2022/01/21 03:58:18;;;;;;;12.20;2.03;;;;;;;;;;5148302;27;20043;-59
2022/01/21 04:00:44;;;;;;;11.55;2.30;;;;;;;;;;5146067;27;20050;-59
2022/01/21 04:03:10;;;;;;;17.58;2.58;;;;;;;;;;5150152;27;20066;-59
2022/01/21 04:05:37;;;;;;;17.55;1.75;;;;;;;;;;5145732;27;20043;-59
2022/01/21 04:08:06;;;;;;;20.10;2.83;;;;;;;;;;5164081;27;20182;-59
2022/01/21 04:10:35;;;;;;;12.63;1.95;;;;;;;;;;5166641;27;20042;-60
2022/01/21 04:13:02;;;;;;;15.93;2.65;;;;;;;;;;5160375;27;20126;-59
2022/01/21 04:15:28;;;;;;;14.65;2.72;;;;;;;;;;5145709;27;20096;-59
2022/01/21 04:17:54;;;;;;;14.82;3.03;;;;;;;;;;5147291;27;20053;-59
2022/01/21 04:20:20;;;;;;;15.20;1.70;;;;;;;;;;5142222;27;20047;-59
2022/01/21 04:22:46;;;;;;;20.65;2.67;;;;;;;;;;5160962;27;20061;-59
2022/01/21 04:25:13;;;;;;;19.60;2.40;;;;;;;;;;5166457;27;20090;-59
2022/01/21 04:27:39;;;;;;;11.45;2.00;;;;;;;;;;5153231;27;20107;-59
2022/01/21 04:30:07;;;;;;;14.35;3.20;;;;;;;;;;5145521;27;20050;-60
2022/01/21 04:32:33;;;;;;;24.15;2.53;;;;;;;;;;5158264;27;20070;-59
2022/01/21 04:34:59;;;;;;;28.90;5.20;;;;;;;;;;5147928;27;20126;-59
2022/01/21 04:37:26;;;;;;;20.67;2.97;;;;;;;;;;5155919;27;20053;-59
2022/01/21 04:40:08;;;;;;;15.00;1.73;;;;;;;;;;5151292;27;20043;-59
2022/01/21 04:48:04;;;;;;;19.70;2.67;;;;;;;;;;5150497;27;20054;-59
2022/01/21 04:50:39;;;;;;;15.95;2.05;;;;;;;;;;5144922;28;20072;-59
2022/01/21 04:53:06;;;;;;;19.52;3.10;;;;;;;;;;5160276;27;20063;-59
2022/01/21 04:55:32;;;;;;;25.30;3.42;;;;;;;;;;5164225;27;20054;-59
2022/01/21 04:57:58;;;;;;;18.67;2.42;;;;;;;;;;5149754;27;20051;-59
2022/01/21 05:00:24;;;;;;;18.10;2.92;;;;;;;;;;5145187;28;20102;-59
2022/01/21 05:02:50;;;;;;;20.25;3.95;;;;;;;;;;5146722;27;20082;-59
2022/01/21 05:05:16;;;;;;;10.13;1.80;;;;;;;;;;5144188;28;20102;-59
2022/01/21 05:07:43;;;;;;;22.25;2.50;;;;;;;;;;5155221;27;20084;-60
2022/01/21 05:10:09;;;;;;;14.35;2.95;;;;;;;;;;5169210;27;20049;-60
2022/01/21 05:12:36;;;;;;;25.63;2.63;;;;;;;;;;5161077;27;20062;-59
2022/01/21 05:15:11;;;;;;;35.65;4.25;;;;;;;;;;5149656;27;20054;-60
2022/01/21 05:17:44;;;;;;;14.10;1.70;;;;;;;;;;5158373;27;20115;-59
2022/01/21 05:20:11;;;;;;;16.95;1.85;;;;;;;;;;5165023;27;20046;-59
2022/01/21 05:22:37;;;;;;;17.40;2.38;;;;;;;;;;5150704;27;20139;-59
2022/01/21 05:25:04;;;;;;;18.77;2.05;;;;;;;;;;5149060;27;20039;-59
2022/01/21 05:27:30;;;;;;;16.25;3.60;;;;;;;;;;5158957;27;20063;-59
2022/01/21 05:29:56;;;;;;;16.55;2.28;;;;;;;;;;5169840;27;20047;-59
2022/01/21 05:32:22;;;;;;;14.55;2.65;;;;;;;;;;5148875;27;20043;-59
2022/01/21 05:34:48;;;;;;;15.48;2.78;;;;;;;;;;5149001;27;20035;-59
2022/01/21 05:37:14;;;;;;;18.85;2.45;;;;;;;;;;5148442;27;20096;-59
2022/01/21 05:39:41;;;;;;;13.13;2.38;;;;;;;;;;5158597;27;20122;-59
2022/01/21 05:42:07;;;;;;;11.88;2.40;;;;;;;;;;5169763;27;20086;-59
2022/01/21 05:47:01;;;;;;;13.50;1.92;;;;;;;;;;5148302;27;20053;-59
2022/01/21 05:49:29;;;;;;;13.60;2.35;;;;;;;;;;5156789;27;20482;-59
2022/01/21 05:52:03;;;;;;;15.13;2.15;;;;;;;;;;5164454;27;20043;-59
2022/01/21 05:54:29;;;;;;;17.73;1.80;;;;;;;;;;5148588;27;20078;-59
2022/01/21 05:56:56;;;;;;;14.10;2.20;;;;;;;;;;5130504;27;20046;-59
2022/01/21 05:59:22;;;;;;;17.05;2.53;;;;;;;;;;5155148;27;20043;-60
2022/01/21 06:01:48;;;;;;;14.18;2.65;;;;;;;;;;5169086;27;20098;-59
2022/01/21 06:04:14;;;;;;;25.08;3.50;;;;;;;;;;5163954;27;20098;-59
2022/01/21 06:06:41;;;;;;;14.52;2.13;;;;;;;;;;5147965;27;20102;-59
2022/01/21 06:09:07;;;;;;;14.13;2.03;;;;;;;;;;5146861;27;20098;-59
2022/01/21 06:11:34;;;;;;;20.95;3.13;;;;;;;;;;5148430;27;20046;-59
2022/01/21 06:14:01;;;;;;;14.80;2.72;;;;;;;;;;5150883;27;20453;-59
2022/01/21 06:16:28;;;;;;;16.65;2.40;;;;;;;;;;5169133;27;20054;-59
2022/01/21 06:18:54;;;;;;;15.55;1.77;;;;;;;;;;5160623;27;20047;-59
2022/01/21 06:21:20;;;;;;;12.63;2.20;;;;;;;;;;5167446;27;20064;-59
2022/01/21 06:23:46;;;;;;;13.98;1.90;;;;;;;;;;5168297;27;20038;-58
2022/01/21 06:26:12;;;;;;;14.15;2.53;;;;;;;;;;5146721;27;20076;-59
2022/01/21 06:28:39;;;;;;;12.27;2.03;;;;;;;;;;5148010;27;20102;-59
2022/01/21 06:31:05;;;;;;;15.00;1.95;;;;;;;;;;5158319;27;20195;-59
2022/01/21 06:33:31;;;;;;;14.02;2.05;;;;;;;;;;5151884;27;20402;-59
2022/01/21 06:35:57;;;;;;;16.60;2.30;;;;;;;;;;5159824;27;20039;-59
2022/01/21 06:38:24;;;;;;;11.48;2.50;;;;;;;;;;5149970;27;20442;-59
2022/01/21 06:40:50;;;;;;;14.52;1.88;;;;;;;;;;5155037;27;20094;-59
2022/01/21 06:43:17;;;;;;;18.02;1.58;;;;;;;;;;5148010;27;20036;-59
2022/01/21 06:45:44;;;;;;;10.77;1.83;;;;;;;;;;5147666;27;20130;-59
2022/01/21 06:48:10;;;;;;;19.85;2.35;;;;;;;;;;5146228;27;20041;-59
2022/01/21 06:50:38;;;;;;;12.95;2.80;;;;;;;;;;5147740;27;20098;-59
2022/01/21 06:53:05;;;;;;;18.10;1.80;;;;;;;;;;5152967;27;20059;-59
2022/01/21 06:55:31;;;;;;;13.82;1.83;;;;;;;;;;5148125;27;20104;-59
2022/01/21 06:57:57;;;;;;;12.10;2.20;;;;;;;;;;5146794;27;20067;-59
2022/01/21 07:00:24;;;;;;;13.77;2.03;;;;;;;;;;5151162;27;20054;-59
2022/01/21 07:02:50;;;;;;;20.10;3.42;;;;;;;;;;5155234;27;20045;-59
2022/01/21 07:05:17;;;;;;;19.13;2.42;;;;;;;;;;5156087;27;20043;-59
2022/01/21 07:07:43;;;;;;;16.52;1.92;;;;;;;;;;5159308;27;20063;-59
2022/01/21 07:10:14;;;;;;;12.65;3.78;;;;;;;;;;5167894;27;20077;-59
2022/01/21 07:12:41;;;;;;;16.45;3.30;;;;;;;;;;5150735;27;20035;-58
2022/01/21 07:15:08;;;;;;;25.02;3.33;;;;;;;;;;5149495;27;20065;-59
2022/01/21 07:17:34;;;;;;;14.73;2.10;;;;;;;;;;5146683;27;20142;-59
2022/01/21 07:20:01;;;;;;;23.38;2.72;;;;;;;;;;5154752;27;20071;-59
2022/01/21 07:22:27;;;;;;;14.32;2.55;;;;;;;;;;5162557;27;20114;-59
2022/01/21 07:24:53;;;;;;;42.42;4.55;;;;;;;;;;5157987;27;20047;-59
2022/01/21 07:27:19;;;;;;;18.65;3.33;;;;;;;;;;5146862;27;20068;-59
2022/01/21 07:29:45;;;;;;;22.75;2.70;;;;;;;;;;5147352;27;20043;-59
2022/01/21 07:32:11;;;;;;;24.15;3.20;;;;;;;;;;5146436;27;20473;-59
2022/01/21 07:34:38;;;;;;;23.42;2.42;;;;;;;;;;5146379;27;20046;-59
2022/01/21 07:37:04;;;;;;;26.38;3.22;;;;;;;;;;5146097;27;20045;-59
2022/01/21 07:39:30;;;;;;;15.65;2.92;;;;;;;;;;5146728;27;20036;-59
2022/01/21 07:41:56;;;;;;;29.50;4.03;;;;;;;;;;5145989;27;20054;-59
2022/01/21 07:44:22;;;;;;;40.17;4.57;;;;;;;;;;5146860;27;20047;-58
2022/01/21 07:46:49;;;;;;;19.70;4.07;;;;;;;;;;5146158;27;20043;-59
2022/01/21 07:49:15;;;;;;;21.70;2.78;;;;;;;;;;5146318;27;20065;-59
2022/01/21 07:51:41;;;;;;;20.27;3.65;;;;;;;;;;5145402;27;20065;-59
2022/01/21 07:54:08;;;;;;;19.23;3.58;;;;;;;;;;5146312;27;20047;-59
2022/01/21 07:56:34;;;;;;;18.40;3.53;;;;;;;;;;5146225;27;20068;-59
2022/01/21 07:59:01;;;;;;;16.55;2.42;;;;;;;;;;5146333;27;20049;-58
2022/01/21 08:01:27;;;;;;;17.47;3.23;;;;;;;;;;5145152;27;20304;-58
2022/01/21 08:03:53;;;;;;;17.05;3.00;;;;;;;;;;5146099;27;20069;-59
2022/01/21 08:06:20;;;;;;;24.92;3.55;;;;;;;;;;5145304;27;20106;-59
2022/01/21 08:08:46;;;;;;;29.60;3.15;;;;;;;;;;5145810;27;20047;-59
2022/01/21 08:11:12;;;;;;;24.90;4.63;;;;;;;;;;5146117;27;20073;-59
2022/01/21 08:13:38;;;;;;;27.88;4.75;;;;;;;;;;5145791;27;20122;-59
2022/01/21 08:16:04;;;;;;;28.50;3.45;;;;;;;;;;5144695;27;20452;-59
2022/01/21 08:18:31;;;;;;;24.63;3.47;;;;;;;;;;5145080;27;20051;-59
2022/01/21 08:20:57;;;;;;;20.30;3.30;;;;;;;;;;5144725;27;20080;-59
2022/01/21 08:23:23;;;;;;;25.40;3.55;;;;;;;;;;5145741;27;20043;-60
2022/01/21 08:25:49;;;;;;;16.65;3.22;;;;;;;;;;5146160;27;20098;-59
2022/01/21 08:28:15;;;;;;;21.02;4.03;;;;;;;;;;5145303;27;20054;-59
2022/01/21 08:30:41;;;;;;;26.35;3.90;;;;;;;;;;5148304;27;20035;-59
2022/01/21 08:33:08;;;;;;;24.67;3.88;;;;;;;;;;5156805;27;20122;-59
2022/01/21 08:35:34;;;;;;;19.02;3.75;;;;;;;;;;5131568;27;20074;-59
2022/01/21 08:38:00;;;;;;;25.83;3.90;;;;;;;;;;5137007;27;20045;-58
2022/01/21 08:40:27;;;;;;;25.23;4.82;;;;;;;;;;5143995;27;20098;-58
2022/01/21 08:42:53;;;;;;;17.75;2.65;;;;;;;;;;5149405;27;20557;-59
2022/01/21 08:45:19;;;;;;;24.02;4.00;;;;;;;;;;5140867;27;20053;-63
2022/01/21 08:47:46;;;;;;;24.90;3.35;;;;;;;;;;5136422;27;20102;-60
2022/01/21 08:50:13;;;;;;;29.80;4.18;;;;;;;;;;5141754;28;20104;-60
2022/01/21 08:52:41;;;;;;;29.70;3.83;;;;;;;;;;5142049;27;20077;-60
2022/01/21 08:55:11;;;;;;;27.95;4.30;;;;;;;;;;5147132;27;20050;-60
2022/01/21 08:57:39;;;;;;;24.15;3.50;;;;;;;;;;5139846;28;20047;-60
2022/01/21 09:00:10;;;;;;;24.80;3.20;;;;;;;;;;5143781;27;20073;-60
2022/01/21 09:02:36;;;;;;;19.13;2.88;;;;;;;;;;5133122;27;20081;-59
2022/01/21 09:05:03;;;;;;;24.67;4.25;;;;;;;;;;5143691;27;20051;-59
2022/01/21 09:07:29;;;;;;;22.85;3.22;;;;;;;;;;5138478;28;20102;-60
2022/01/21 09:09:55;;;;;;;28.00;5.97;;;;;;;;;;5143573;27;20054;-60
2022/01/21 09:12:22;;;;;;;21.58;4.65;;;;;;;;;;5143863;28;20046;-59
2022/01/21 09:14:49;;;;;;;28.90;5.00;;;;;;;;;;5142482;27;20050;-60
2022/01/21 09:17:15;;;;;;;25.42;4.68;;;;;;;;;;5143938;27;20071;-60
2022/01/21 09:19:41;;;;;;;23.15;3.70;;;;;;;;;;5138527;27;20039;-60
2022/01/21 09:22:07;;;;;;;18.42;3.20;;;;;;;;;;5139752;27;20042;-60
2022/01/21 09:24:34;;;;;;;24.13;5.22;;;;;;;;;;5141129;27;20039;-60
2022/01/21 09:27:01;;;;;;;30.48;4.35;;;;;;;;;;5141267;27;20103;-60
2022/01/21 09:29:27;;;;;;;22.77;4.18;;;;;;;;;;5138918;27;20050;-60
2022/01/21 09:31:53;;;;;;;25.60;4.22;;;;;;;;;;5139882;28;20043;-61
2022/01/21 09:34:20;;;;;;;26.58;3.67;;;;;;;;;;5138707;27;20069;-61
2022/01/21 09:36:46;;;;;;;29.20;4.32;;;;;;;;;;5146819;27;20045;-62
2022/01/21 09:39:13;;;;;;;21.27;3.33;;;;;;;;;;5139557;27;20039;-62
2022/01/21 09:41:42;;;;;;;23.63;3.17;;;;;;;;;;5134198;27;20097;-60
2022/01/21 09:44:12;;;;;;;35.08;4.68;;;;;;;;;;5140307;27;20289;-65
2022/01/21 09:46:42;;;;;;;21.10;3.40;;;;;;;;;;5134336;27;20035;-66
2022/01/21 09:49:30;;;;;;;20.13;4.28;;;;;;;;;;5144067;27;20057;-66
2022/01/21 09:52:06;;;;;;;20.13;3.88;;;;;;;;;;5136899;27;20039;-65
2022/01/21 09:54:34;;;;;;;28.15;3.75;;;;;;;;;;5137092;27;20035;-67
2022/01/21 09:57:00;;;;;;;;;;;;;;;;;;5143867;27;20051;-68
2022/01/21 09:59:27;;;;;;;21.98;2.78;;;;;;;;;;5144291;27;19974;-61
2022/01/21 10:01:56;;;;;;;34.97;3.85;;;;;;;;;;5142341;27;20054;-61
2022/01/21 10:04:25;;;;;;;30.33;4.15;;;;;;;;;;5153742;27;20106;-62
2022/01/21 10:06:52;;;;;;;34.95;3.75;;;;;;;;;;5141313;27;20031;-64
2022/01/21 10:09:20;;;;;;;28.50;4.20;;;;;;;;;;5144583;27;20621;-62
2022/01/21 10:11:49;;;;;;;30.35;4.30;;;;;;;;;;5147517;27;20094;-71
2022/01/21 10:14:23;;;;;;;29.05;5.22;;;;;;;;;;5143355;27;20058;-67
2022/01/21 10:16:49;;;;;;;25.77;3.60;;;;;;;;;;5128498;27;20039;-68
2022/01/21 10:19:26;;;;;;;28.77;3.25;;;;;;;;;;5144547;27;20110;-68
2022/01/21 10:22:10;;;;;;;26.40;4.32;;;;;;;;;;5146912;27;20050;-67
2022/01/21 10:24:50;;;;;;;21.30;3.47;;;;;;;;;;5144567;27;20043;-69
2022/01/21 10:27:27;;;;;;;28.88;3.88;;;;;;;;;;5145844;27;20054;-68
2022/01/21 10:29:53;;;;;;;26.67;4.15;;;;;;;;;;5145198;27;20113;-69
2022/01/21 10:32:52;;;;;;;21.23;3.67;;;;;;;;;;5137047;27;20046;-71
2022/01/21 10:35:20;;;;;;;23.60;3.17;;;;;;;;;;5102314;28;20048;-70
2022/01/21 10:37:47;;;;;;;20.10;2.70;;;;;;;;;;5085584;28;20066;-64
2022/01/21 10:40:15;;;;;;;20.40;2.88;;;;;;;;;;5103449;28;20073;-64
2022/01/21 10:42:41;;;;;;;17.25;2.30;;;;;;;;;;5084943;28;20044;-69
2022/01/21 10:45:08;;;;;;;13.85;3.15;;;;;;;;;;5086585;28;20146;-68
2022/01/21 10:47:38;;;;;;;17.33;2.88;;;;;;;;;;5085711;28;20123;-68
2022/01/21 10:50:13;;;;;;;27.40;3.20;;;;;;;;;;5084477;28;20139;-66
2022/01/21 10:52:53;;;;;;;28.83;2.90;;;;;;;;;;5106827;28;20079;-66
2022/01/21 10:55:33;;;;;;;24.90;3.67;;;;;;;;;;5085077;28;20115;-68
2022/01/21 10:58:08;;;;;;;26.30;3.85;;;;;;;;;;5078606;28;20063;-69
2022/01/21 11:00:34;;;;;;;22.50;3.47;;;;;;;;;;5084189;28;20059;-66
2022/01/21 11:03:14;;;;;;;19.45;3.10;;;;;;;;;;5103477;28;20040;-70
2022/01/21 11:05:45;;;;;;;17.08;2.90;;;;;;;;;;5098320;28;20048;-69
2022/01/21 11:08:14;;;;;;;27.30;3.03;;;;;;;;;;5101171;28;20071;-62
2022/01/21 11:10:45;;;;;;;15.52;2.78;;;;;;;;;;5115872;27;20082;-62
2022/01/21 11:13:20;;;;;;;19.13;3.05;;;;;;;;;;5145183;27;20044;-72
2022/01/21 11:15:48;;;;;;;23.65;2.55;;;;;;;;;;5138624;27;20043;-63
2022/01/21 11:18:17;;;;;;;18.55;2.55;;;;;;;;;;5141668;27;20050;-64
2022/01/21 11:20:47;;;;;;;12.65;2.08;;;;;;;;;;5146161;27;20051;-66
2022/01/21 11:23:13;;;;;;;20.35;2.67;;;;;;;;;;5140896;27;20050;-64
2022/01/21 11:25:54;;;;;;;25.48;3.33;;;;;;;;;;5141038;27;20047;-64
2022/01/21 11:28:39;;;;;;;12.90;3.05;;;;;;;;;;5136167;27;20050;-69
2022/01/21 11:31:06;;;;;;;15.95;2.80;;;;;;;;;;5143086;27;20057;-68
2022/01/21 11:33:32;;;;;;;12.57;2.35;;;;;;;;;;5132149;27;20040;-68
2022/01/21 11:35:59;;;;;;;21.88;2.78;;;;;;;;;;5150391;27;20427;-69
2022/01/21 11:38:26;;;;;;;19.40;3.25;;;;;;;;;;5146473;27;20050;-68
2022/01/21 11:40:53;;;;;;;9.38;2.05;;;;;;;;;;5142867;27;20068;-69
2022/01/21 11:43:19;;;;;;;25.65;3.35;;;;;;;;;;5138938;27;20100;-68
2022/01/21 11:50:51;;;;;;;14.05;2.78;;;;;;;;;;5147817;27;20043;-62
2022/01/21 11:53:38;;;;;;;9.80;1.92;;;;;;;;;;5147774;27;20122;-61
2022/01/21 11:56:24;;;;;;;15.10;2.80;;;;;;;;;;5127234;27;20039;-63
2022/01/21 11:59:23;;;;;;;9.93;2.08;;;;;;;;;;5146421;27;20050;-67
2022/01/21 12:01:50;;;;;;;15.05;2.13;;;;;;;;;;5157519;27;20130;-65
2022/01/21 12:04:37;;;;;;;15.38;2.50;;;;;;;;;;5144791;27;20031;-61
2022/01/21 12:07:03;;;;;;;16.58;3.20;;;;;;;;;;5140967;27;20055;-60
2022/01/21 12:09:48;;;;;;;12.88;2.67;;;;;;;;;;5143818;27;20047;-60
2022/01/21 12:12:14;;;;;;;19.55;3.00;;;;;;;;;;5143374;27;20159;-61
2022/01/21 12:14:43;;;;;;;19.23;1.65;;;;;;;;;;5145377;27;20042;-61
2022/01/21 12:17:18;;;;;;;20.67;2.90;;;;;;;;;;5140638;27;20051;-60
2022/01/21 12:19:44;;;;;;;12.57;2.47;;;;;;;;;;5134117;27;20056;-61
2022/01/21 12:22:12;;;;;;;16.80;3.40;;;;;;;;;;5130310;27;20087;-60
2022/01/21 12:24:46;;;;;;;16.55;2.03;;;;;;;;;;5127863;27;20067;-60
2022/01/21 12:27:13;;;;;;;13.13;2.53;;;;;;;;;;5129562;27;20085;-60
2022/01/21 12:29:40;;;;;;;12.65;2.22;;;;;;;;;;5126811;27;20040;-60
2022/01/21 12:32:15;;;;;;;10.73;2.10;;;;;;;;;;5135768;27;20051;-60
2022/01/21 12:35:01;;;;;;;11.48;2.80;;;;;;;;;;5139807;27;20446;-64
2022/01/21 12:37:40;;;;;;;13.57;1.92;;;;;;;;;;5152622;27;20058;-63
2022/01/21 12:40:06;;;;;;;18.48;3.10;;;;;;;;;;5139279;27;20039;-62
2022/01/21 12:42:35;;;;;;;17.88;2.75;;;;;;;;;;5137100;27;20095;-61
2022/01/21 12:45:07;;;;;;;22.33;2.90;;;;;;;;;;5139304;27;20138;-62
2022/01/21 12:47:40;;;;;;;18.50;1.98;;;;;;;;;;5136685;27;20399;-62
2022/01/21 12:50:09;;;;;;;18.42;3.33;;;;;;;;;;5136905;27;20043;-62
2022/01/21 12:56:03;;;;;;;30.13;3.05;;;;;;;;;;5052911;28;20084;-65
2022/01/21 12:58:47;;;;;;;23.67;3.20;;;;;;;;;;5064868;28;20556;-65
2022/01/21 13:01:14;;;;;;;21.42;2.92;;;;;;;;;;5077580;28;20049;-62
2022/01/21 13:03:54;;;;;;;19.42;3.30;;;;;;;;;;5075724;28;20108;-65
2022/01/21 13:06:36;;;;;;;20.10;3.15;;;;;;;;;;5074840;28;20074;-59
2022/01/21 13:09:07;;;;;;;17.83;2.38;;;;;;;;;;5073042;28;20045;-59
2022/01/21 13:11:35;;;;;;;28.80;3.88;;;;;;;;;;5077923;28;20090;-59
2022/01/21 13:14:01;;;;;;;;;;;;;;;;;;5079191;28;20048;-58
2022/01/21 13:16:32;;;;;;;17.65;2.13;;;;;;;;;;5085066;28;19924;-59
2022/01/21 13:19:02;;;;;;;17.42;3.20;;;;;;;;;;5072140;28;20569;-59
2022/01/21 13:21:29;;;;;;;19.65;3.25;;;;;;;;;;5079921;28;20044;-58
2022/01/21 13:23:59;;;;;;;30.25;2.33;;;;;;;;;;5074868;28;20530;-59
2022/01/21 13:26:31;;;;;;;14.63;2.30;;;;;;;;;;5080945;28;20051;-60
2022/01/21 13:28:58;;;;;;;16.17;2.78;;;;;;;;;;5085302;28;20085;-61
2022/01/21 13:31:25;;;;;;;16.48;3.47;;;;;;;;;;5139936;27;20099;-60
2022/01/21 13:33:51;;;;;;;15.70;2.80;;;;;;;;;;5149094;27;20138;-60
2022/01/21 13:36:56;;;;;;;20.02;3.17;;;;;;;;;;5141929;27;20054;-62
2022/01/21 13:39:29;;;;;;;21.02;3.15;;;;;;;;;;5098315;28;20135;-58
2022/01/21 13:41:57;;;;;;;19.50;2.70;;;;;;;;;;5099134;28;20582;-58
2022/01/21 13:44:23;;;;;;;;;;;;;;;;;;5100303;28;20126;-58
2022/01/21 13:46:49;;;;;;;27.73;3.22;;;;;;;;;;5096209;28;19920;-58
2022/01/21 13:49:19;;;;;;;15.75;3.72;;;;;;;;;;5093900;28;20032;-59
2022/01/21 13:52:03;;;;;;;16.27;2.70;;;;;;;;;;5098121;28;20052;-60
2022/01/21 13:54:33;;;;;;;18.83;2.55;;;;;;;;;;5101160;28;20044;-59
2022/01/21 13:57:00;;;;;;;13.25;2.17;;;;;;;;;;5099601;28;20523;-59
2022/01/21 13:59:26;;;;;;;10.32;2.17;;;;;;;;;;5094268;28;20159;-59
2022/01/21 14:02:02;;;;;;;14.82;2.65;;;;;;;;;;5093572;28;20040;-58
2022/01/21 14:04:29;;;;;;;24.83;2.83;;;;;;;;;;5089847;28;20056;-61
2022/01/21 14:06:55;;;;;;;20.00;3.22;;;;;;;;;;5085571;28;20041;-60
2022/01/21 14:09:24;;;;;;;21.48;2.72;;;;;;;;;;5097345;27;20040;-60
2022/01/21 14:11:51;;;;;;;22.65;2.60;;;;;;;;;;5139773;27;20047;-60
2022/01/21 14:14:21;;;;;;;20.60;3.08;;;;;;;;;;5135144;27;20459;-60
2022/01/21 14:16:51;;;;;;;27.65;3.17;;;;;;;;;;5135935;27;20100;-60
2022/01/21 14:19:20;;;;;;;19.13;3.60;;;;;;;;;;5144368;27;20058;-60
2022/01/21 14:21:47;;;;;;;34.67;3.53;;;;;;;;;;5141314;27;20086;-58
2022/01/21 14:24:15;;;;;;;20.80;3.35;;;;;;;;;;5145615;27;20094;-59
2022/01/21 14:26:50;;;;;;;22.00;2.65;;;;;;;;;;5141336;27;20099;-59
2022/01/21 14:29:17;;;;;;;20.02;2.50;;;;;;;;;;5135252;27;20043;-62
2022/01/21 14:31:44;;;;;;;24.08;3.80;;;;;;;;;;5147297;27;20077;-60
2022/01/21 14:34:13;;;;;;;21.60;3.45;;;;;;;;;;5140624;27;20051;-60
2022/01/21 14:36:40;;;;;;;18.92;2.60;;;;;;;;;;5139554;27;20083;-60
2022/01/21 14:39:19;;;;;;;21.20;2.80;;;;;;;;;;5138589;27;20486;-58
2022/01/21 14:41:49;;;;;;;23.85;2.80;;;;;;;;;;5142838;27;20054;-58
2022/01/21 14:44:16;;;;;;;20.38;2.80;;;;;;;;;;5142003;27;20047;-57
2022/01/21 14:46:44;;;;;;;16.50;2.67;;;;;;;;;;5142177;27;20069;-56
2022/01/21 14:49:11;;;;;;;26.00;3.28;;;;;;;;;;5133053;27;20062;-58
2022/01/21 14:51:46;;;;;;;17.27;2.58;;;;;;;;;;5136800;27;20506;-58
2022/01/21 14:54:13;;;;;;;17.63;2.45;;;;;;;;;;5148010;27;20061;-57
2022/01/21 14:56:41;;;;;;;10.95;2.00;;;;;;;;;;5143724;27;20053;-57
2022/01/21 14:59:08;;;;;;;15.93;2.75;;;;;;;;;;5143735;27;20110;-58
2022/01/21 15:01:34;;;;;;;17.75;3.03;;;;;;;;;;5145290;27;20047;-58
2022/01/21 15:04:11;;;;;;;23.02;2.90;;;;;;;;;;5146875;27;20050;-58
2022/01/21 15:06:39;;;;;;;11.95;1.98;;;;;;;;;;5135338;27;20048;-58
2022/01/21 15:09:05;;;;;;;;;;;;;;;;;;5140823;27;20084;-58
2022/01/21 15:11:54;;;;;;;16.05;2.55;;;;;;;;;;5146482;27;19963;-58
2022/01/21 15:14:26;;;;;;;19.30;2.42;;;;;;;;;;5148562;27;20148;-58
2022/01/21 15:17:09;;;;;;;13.23;1.52;;;;;;;;;;5149046;27;20050;-58
2022/01/21 15:19:36;;;;;;;17.92;2.58;;;;;;;;;;5134328;27;20039;-59
2022/01/21 15:22:07;;;;;;;14.68;1.88;;;;;;;;;;5135889;27;20043;-58
2022/01/21 15:24:33;;;;;;;15.88;2.13;;;;;;;;;;5143564;27;20413;-60
2022/01/21 15:26:59;;;;;;;16.00;2.00;;;;;;;;;;5131230;27;20048;-55
2022/01/21 15:29:28;;;;;;;11.85;2.00;;;;;;;;;;5150452;27;20034;-57
2022/01/21 15:31:54;;;;;;;13.90;2.10;;;;;;;;;;5141319;27;20054;-58
2022/01/21 15:34:20;;;;;;;15.68;2.47;;;;;;;;;;5131748;27;20051;-59
2022/01/21 15:36:47;;;;;;;10.10;1.60;;;;;;;;;;5138600;27;20071;-58